X  Fechar Dados meteorológicos de METAR da aviação     EDDK Cologne Bonn Airport
Temperatura
13°C Temperatura
12°C Ponto de orvalho
94% Umidade



Vento
11 KM/H
7 MPH
3 M/S
6 NÓS



60°
LNL
Condições atuais

Limpo Limpo
Pressão 1021 (hPa) - 30.15 (inHg)
Visibilidade 6 (milha) - 9.7 (km)
Aeroporto
Código do aeroporto EDDK

Localização: Cologne Bonn Airport
Distância: 56 (km)

Metar:
EDDK 192220Z AUTO 06006KT CAVOK 13/12 Q1021 NOSIG

Hora: 2024-06-20 00:20 CEST